createdAt,value
2022-09-11T00:00:09.899Z,15.81
2022-09-11T00:02:39.776Z,15.83
2022-09-11T00:05:10.478Z,15.77
2022-09-11T00:07:39.491Z,15.73
2022-09-11T00:10:09.798Z,15.74
2022-09-11T00:12:38.183Z,15.72
2022-09-11T00:15:09.187Z,15.72
2022-09-11T00:17:39.132Z,15.69
2022-09-11T00:20:08.368Z,15.68
2022-09-11T00:22:37.418Z,15.65
2022-09-11T00:25:07.849Z,15.62
2022-09-11T00:27:37.289Z,15.59
2022-09-11T00:30:06.799Z,15.59
2022-09-11T00:32:35.831Z,15.60
2022-09-11T00:35:06.744Z,15.62
2022-09-11T00:37:35.190Z,15.57
2022-09-11T00:40:05.392Z,15.57
2022-09-11T00:42:33.891Z,15.59
2022-09-11T00:45:07.786Z,15.58
2022-09-11T00:47:37.743Z,15.58
2022-09-11T00:50:19.443Z,15.58
2022-09-11T00:52:55.598Z,15.57
2022-09-11T00:55:33.316Z,15.58
2022-09-11T00:58:07.688Z,15.57
2022-09-11T01:00:37.190Z,15.56
2022-09-11T01:03:06.001Z,15.57
2022-09-11T01:05:41.844Z,15.57
2022-09-11T01:08:11.407Z,15.55
2022-09-11T01:10:57.680Z,15.52
2022-09-11T01:13:38.970Z,15.47
2022-09-11T01:16:23.300Z,15.45
2022-09-11T01:19:02.198Z,15.46
2022-09-11T01:22:01.763Z,15.45
2022-09-11T01:24:57.402Z,15.43
2022-09-11T01:27:45.912Z,15.44
2022-09-11T01:30:19.343Z,15.38
2022-09-11T01:33:15.552Z,15.38
2022-09-11T01:36:00.431Z,15.35
2022-09-11T01:38:38.577Z,15.34
2022-09-11T01:41:14.978Z,15.33
2022-09-11T01:43:52.587Z,15.34
2022-09-11T01:46:26.879Z,15.30
2022-09-11T01:49:06.713Z,15.31
2022-09-11T01:51:39.143Z,15.30
2022-09-11T01:54:17.084Z,15.30
2022-09-11T01:56:55.503Z,15.30
2022-09-11T01:59:37.007Z,15.26
2022-09-11T02:02:13.501Z,15.24
2022-09-11T02:04:50.252Z,15.22
2022-09-11T02:07:26.196Z,15.23
2022-09-11T02:10:01.434Z,15.21
2022-09-11T02:12:41.456Z,15.19
2022-09-11T02:15:15.910Z,15.18
2022-09-11T02:17:54.252Z,15.20
2022-09-11T02:20:23.962Z,15.20
2022-09-11T02:22:53.756Z,15.20
2022-09-11T02:25:23.759Z,15.17
2022-09-11T02:27:52.920Z,15.14
2022-09-11T02:30:23.418Z,15.13
2022-09-11T02:32:51.835Z,15.13
2022-09-11T02:35:20.573Z,15.11
2022-09-11T02:38:04.393Z,15.14
2022-09-11T02:40:51.582Z,15.11
2022-09-11T02:43:44.253Z,15.08
2022-09-11T02:46:45.001Z,15.08
2022-09-11T02:49:27.979Z,15.08
2022-09-11T02:52:06.386Z,15.04
2022-09-11T02:54:52.052Z,15.04
2022-09-11T02:57:30.852Z,15.03
2022-09-11T03:00:03.643Z,15.02
2022-09-11T03:02:40.553Z,15.03
2022-09-11T03:05:11.396Z,15.03
2022-09-11T03:07:39.917Z,15.03
2022-09-11T03:10:11.263Z,14.99
2022-09-11T03:12:42.415Z,14.99
2022-09-11T03:15:12.830Z,14.99
2022-09-11T03:17:44.400Z,15.01
2022-09-11T03:20:13.378Z,14.99
2022-09-11T03:22:43.445Z,15.01
2022-09-11T03:25:12.553Z,15.01
2022-09-11T03:27:42.217Z,15.03
2022-09-11T03:30:12.225Z,15.05
2022-09-11T03:32:42.088Z,15.03
2022-09-11T03:35:13.007Z,15.07
2022-09-11T03:37:41.404Z,15.08
2022-09-11T03:40:11.776Z,15.09
2022-09-11T03:42:40.846Z,15.11
2022-09-11T03:45:12.122Z,15.11
2022-09-11T03:47:42.754Z,15.10
2022-09-11T03:50:12.462Z,15.14
2022-09-11T03:52:41.034Z,15.15
2022-09-11T03:55:11.083Z,15.17
2022-09-11T03:57:40.627Z,15.18
2022-09-11T04:00:11.300Z,15.19
2022-09-11T04:02:42.169Z,15.21
2022-09-11T04:05:11.969Z,15.20
2022-09-11T04:07:40.490Z,15.20
2022-09-11T04:10:09.908Z,15.22
2022-09-11T04:12:38.954Z,15.21
2022-09-11T04:15:10.959Z,15.16
2022-09-11T04:17:39.465Z,15.16
2022-09-11T04:20:11.766Z,15.13
2022-09-11T04:22:42.634Z,15.13
2022-09-11T04:25:12.478Z,15.12
2022-09-11T04:27:42.624Z,15.11
2022-09-11T04:30:12.969Z,15.14
2022-09-11T04:32:41.383Z,15.13
2022-09-11T04:35:12.590Z,15.14
2022-09-11T04:37:41.039Z,15.14
2022-09-11T04:40:12.596Z,15.13
2022-09-11T04:42:42.522Z,15.12
2022-09-11T04:45:13.230Z,15.09
2022-09-11T04:47:42.195Z,15.07
2022-09-11T04:50:12.890Z,15.06
2022-09-11T04:52:41.383Z,15.01
2022-09-11T04:55:12.704Z,15.03
2022-09-11T04:57:41.586Z,15.02
2022-09-11T05:00:12.125Z,15.01
2022-09-11T05:02:42.891Z,14.99
2022-09-11T05:05:13.727Z,15.00
2022-09-11T05:07:46.244Z,15.00
2022-09-11T05:10:16.341Z,14.99
2022-09-11T05:12:45.652Z,15.01
2022-09-11T05:15:16.591Z,15.03
2022-09-11T05:17:45.291Z,15.03
2022-09-11T05:20:18.796Z,15.02
2022-09-11T05:22:49.813Z,15.03
2022-09-11T05:25:19.679Z,15.06
2022-09-11T05:27:49.452Z,15.07
2022-09-11T05:30:21.089Z,15.08
2022-09-11T05:32:55.169Z,15.11
2022-09-11T05:35:32.265Z,15.15
2022-09-11T05:38:01.262Z,15.14
2022-09-11T05:40:30.335Z,15.14
2022-09-11T05:42:58.796Z,15.15
2022-09-11T05:45:27.943Z,15.17
2022-09-11T05:47:58.018Z,15.20
2022-09-11T05:50:29.116Z,15.24
2022-09-11T05:52:57.521Z,15.24
2022-09-11T05:55:26.492Z,15.26
2022-09-11T05:57:55.856Z,15.30
2022-09-11T06:00:25.531Z,15.33
2022-09-11T06:02:56.231Z,15.35
2022-09-11T06:05:25.269Z,15.38
2022-09-11T06:07:55.617Z,15.41
2022-09-11T06:10:24.008Z,15.44
2022-09-11T06:12:53.206Z,15.46
2022-09-11T06:15:45.158Z,15.49
2022-09-11T06:18:11.600Z,15.50
2022-09-11T06:20:41.148Z,15.53
2022-09-11T06:23:13.078Z,15.54
2022-09-11T06:25:41.500Z,15.57
2022-09-11T06:28:09.966Z,15.61
2022-09-11T06:30:38.421Z,15.65
2022-09-11T06:33:09.996Z,15.67
2022-09-11T06:35:38.470Z,15.72
2022-09-11T06:38:06.917Z,15.75
2022-09-11T06:40:38.868Z,15.78
2022-09-11T06:43:07.427Z,15.80
2022-09-11T06:45:35.894Z,15.84
2022-09-11T06:48:04.766Z,15.88
2022-09-11T06:50:40.269Z,15.92
2022-09-11T06:53:09.501Z,15.95
2022-09-11T06:55:41.330Z,15.97
2022-09-11T06:58:10.369Z,16.00
2022-09-11T07:00:38.967Z,16.05
2022-09-11T07:03:07.514Z,16.09
2022-09-11T07:05:35.980Z,16.13
2022-09-11T07:08:06.101Z,16.17
2022-09-11T07:10:35.587Z,16.22
2022-09-11T07:13:06.074Z,16.27
2022-09-11T07:15:34.598Z,16.33
2022-09-11T07:18:03.314Z,16.38
2022-09-11T07:20:31.942Z,16.45
2022-09-11T07:23:01.258Z,16.48
2022-09-11T07:25:30.258Z,16.51
2022-09-11T07:27:59.485Z,16.56
2022-09-11T07:30:29.480Z,16.60
2022-09-11T07:32:58.158Z,16.64
2022-09-11T07:35:26.929Z,16.64
2022-09-11T07:37:55.723Z,16.70
2022-09-11T07:40:24.842Z,16.73
2022-09-11T07:42:53.530Z,16.74
2022-09-11T07:45:23.055Z,16.76
2022-09-11T07:47:53.058Z,16.76
2022-09-11T07:50:21.811Z,16.77
2022-09-11T07:52:50.422Z,16.74
2022-09-11T07:55:19.097Z,16.75
2022-09-11T07:57:47.803Z,16.75
2022-09-11T08:00:17.387Z,16.80
2022-09-11T08:02:45.892Z,16.83
2022-09-11T08:05:15.921Z,16.87
2022-09-11T08:07:44.545Z,16.90
2022-09-11T08:10:27.953Z,16.97
2022-09-11T08:12:59.753Z,17.01
2022-09-11T08:15:28.814Z,17.05
2022-09-11T08:17:57.321Z,17.06
2022-09-11T08:20:27.209Z,17.07
2022-09-11T08:22:58.012Z,17.08
2022-09-11T08:25:27.765Z,17.09
2022-09-11T08:27:57.257Z,17.09
2022-09-11T08:30:25.757Z,17.10
2022-09-11T08:32:54.255Z,17.14
2022-09-11T08:35:22.803Z,17.19
2022-09-11T08:37:55.071Z,17.23
2022-09-11T08:40:24.434Z,17.28
2022-09-11T08:42:53.686Z,17.26
2022-09-11T08:45:26.348Z,17.25
2022-09-11T08:47:58.557Z,17.27
2022-09-11T08:50:37.160Z,17.33
2022-09-11T08:53:12.848Z,17.37
2022-09-11T08:55:48.202Z,17.40
2022-09-11T08:58:30.908Z,17.37
2022-09-11T09:01:14.817Z,17.38
2022-09-11T09:04:20.599Z,17.37
2022-09-11T09:07:04.933Z,17.39
2022-09-11T09:09:50.027Z,17.39
2022-09-11T09:12:32.577Z,17.40
2022-09-11T09:15:35.316Z,17.41
2022-09-11T09:18:14.090Z,17.41
2022-09-11T09:20:51.172Z,17.43
2022-09-11T09:23:24.969Z,17.44
2022-09-11T09:25:57.935Z,17.46
2022-09-11T09:28:36.087Z,17.47
2022-09-11T09:31:11.421Z,17.52
2022-09-11T09:33:51.265Z,17.56
2022-09-11T09:36:25.600Z,17.58
2022-09-11T09:38:54.918Z,17.63
2022-09-11T09:42:01.571Z,17.69
2022-09-11T09:44:55.053Z,17.71
2022-09-11T09:47:24.590Z,17.71
2022-09-11T09:49:53.458Z,17.75
2022-09-11T09:52:26.202Z,17.77
2022-09-11T09:55:00.411Z,17.79
2022-09-11T09:57:35.735Z,17.83
2022-09-11T10:00:15.897Z,17.85
2022-09-11T10:02:49.257Z,17.90
2022-09-11T10:05:25.240Z,17.98
2022-09-11T10:07:56.882Z,18.02
2022-09-11T10:10:34.951Z,18.06
2022-09-11T10:13:19.776Z,18.12
2022-09-11T10:15:51.046Z,18.17
2022-09-11T10:18:37.725Z,18.23
2022-09-11T10:21:22.940Z,18.25
2022-09-11T10:23:56.408Z,18.31
2022-09-11T10:26:32.655Z,18.39
2022-09-11T10:29:14.160Z,18.46
2022-09-11T10:31:50.641Z,18.52
2022-09-11T10:34:23.242Z,18.61
2022-09-11T10:36:56.767Z,18.63
2022-09-11T10:39:28.517Z,18.64
2022-09-11T10:42:05.502Z,18.71
2022-09-11T10:44:37.092Z,18.77
2022-09-11T10:47:17.456Z,18.79
2022-09-11T10:49:48.778Z,18.75
2022-09-11T10:52:22.934Z,18.79
2022-09-11T10:55:08.737Z,18.79
2022-09-11T10:57:46.267Z,18.80
2022-09-11T11:00:21.361Z,18.84
2022-09-11T11:02:55.001Z,18.87
2022-09-11T11:05:31.579Z,18.95
2022-09-11T11:08:23.992Z,18.99
2022-09-11T11:11:18.132Z,19.03
2022-09-11T11:14:07.898Z,19.07
2022-09-11T11:16:53.489Z,19.10
2022-09-11T11:20:03.568Z,19.12
2022-09-11T11:22:58.383Z,19.18
2022-09-11T11:25:37.313Z,19.23
2022-09-11T11:28:37.121Z,19.32
2022-09-11T11:31:33.757Z,19.36
2022-09-11T11:34:25.616Z,19.43
2022-09-11T11:37:06.032Z,19.43
2022-09-11T11:39:44.994Z,19.47
2022-09-11T11:42:24.244Z,19.47
2022-09-11T11:44:58.543Z,19.51
2022-09-11T11:47:34.502Z,19.56
2022-09-11T11:50:15.060Z,19.63
2022-09-11T11:52:57.987Z,19.66
2022-09-11T11:55:33.744Z,19.69
2022-09-11T11:58:13.670Z,19.70
2022-09-11T12:00:55.277Z,19.71
2022-09-11T12:03:31.094Z,19.73
2022-09-11T12:06:01.224Z,19.75
2022-09-11T12:08:30.240Z,19.76
2022-09-11T12:11:04.777Z,19.78
2022-09-11T12:13:38.545Z,19.78
2022-09-11T12:16:18.217Z,19.82
2022-09-11T12:19:06.418Z,19.84
2022-09-11T12:22:04.327Z,19.85
2022-09-11T12:24:58.957Z,19.86
2022-09-11T12:28:10.814Z,19.86
2022-09-11T12:30:59.952Z,19.87
2022-09-11T12:33:57.792Z,19.90
2022-09-11T12:36:53.916Z,19.94
2022-09-11T12:39:34.239Z,19.90
2022-09-11T12:42:59.261Z,19.89
2022-09-11T12:45:35.922Z,19.97
2022-09-11T12:48:12.881Z,19.98
2022-09-11T12:50:50.632Z,19.97
2022-09-11T12:53:27.609Z,19.94
2022-09-11T12:56:02.343Z,19.94
2022-09-11T12:58:38.754Z,19.93
2022-09-11T13:01:21.555Z,19.91
2022-09-11T13:04:01.094Z,19.92
2022-09-11T13:06:42.782Z,19.92
2022-09-11T13:09:24.023Z,19.95
2022-09-11T13:11:55.753Z,19.94
2022-09-11T13:14:49.185Z,19.98
2022-09-11T13:17:30.756Z,20.01
2022-09-11T13:20:23.151Z,20.06
2022-09-11T13:22:58.192Z,20.13
2022-09-11T13:25:31.627Z,20.15
2022-09-11T13:28:03.477Z,20.21
2022-09-11T13:30:32.833Z,20.30
2022-09-11T13:33:09.000Z,20.41
2022-09-11T13:35:40.549Z,20.48
2022-09-11T13:38:14.840Z,20.57
2022-09-11T13:40:50.432Z,20.63
2022-09-11T13:43:25.573Z,20.67
2022-09-11T13:46:21.243Z,20.89
2022-09-11T13:48:54.118Z,21.42
2022-09-11T13:51:27.597Z,22.04
2022-09-11T13:54:05.988Z,22.32
2022-09-11T13:57:06.623Z,22.80
2022-09-11T13:59:40.482Z,23.12
2022-09-11T14:02:48.524Z,23.33
2022-09-11T14:05:22.470Z,23.35
2022-09-11T14:08:01.601Z,23.33
2022-09-11T14:10:34.252Z,23.31
2022-09-11T14:13:16.286Z,23.27
2022-09-11T14:15:54.252Z,23.18
2022-09-11T14:18:33.312Z,23.17
2022-09-11T14:21:06.838Z,23.13
2022-09-11T14:23:45.021Z,23.10
2022-09-11T14:26:19.155Z,23.21
2022-09-11T14:29:04.232Z,23.27
2022-09-11T14:31:38.074Z,23.33
2022-09-11T14:34:23.147Z,23.37
2022-09-11T14:36:57.672Z,23.40
2022-09-11T14:39:37.745Z,23.46
2022-09-11T14:42:09.887Z,23.49
2022-09-11T14:44:42.728Z,23.57
2022-09-11T14:47:17.287Z,23.58
2022-09-11T14:49:46.670Z,23.64
2022-09-11T14:52:17.593Z,23.68
2022-09-11T14:54:47.155Z,23.82
2022-09-11T14:57:20.771Z,23.86
2022-09-11T14:59:52.422Z,23.93
2022-09-11T15:02:23.511Z,24.02
2022-09-11T15:04:55.007Z,24.06
2022-09-11T15:07:26.020Z,24.16
2022-09-11T15:09:56.429Z,24.15
2022-09-11T15:12:24.933Z,24.23
2022-09-11T15:14:58.114Z,24.26
2022-09-11T15:17:31.655Z,24.38
2022-09-11T15:20:00.766Z,24.44
2022-09-11T15:22:31.343Z,24.48
2022-09-11T15:25:00.058Z,24.54
2022-09-11T15:27:28.704Z,24.56
2022-09-11T15:29:58.563Z,24.53
2022-09-11T15:32:27.532Z,24.49
2022-09-11T15:34:56.244Z,24.50
2022-09-11T15:37:25.632Z,24.51
2022-09-11T15:39:54.264Z,24.45
2022-09-11T15:42:22.854Z,24.44
2022-09-11T15:44:51.995Z,24.42
2022-09-11T15:47:22.169Z,24.45
2022-09-11T15:49:50.625Z,24.41
2022-09-11T15:52:20.279Z,24.39
2022-09-11T15:54:49.016Z,24.41
2022-09-11T15:57:18.486Z,24.27
2022-09-11T15:59:51.830Z,24.24
2022-09-11T16:02:23.871Z,24.17
2022-09-11T16:04:53.950Z,24.10
2022-09-11T16:07:22.950Z,24.02
2022-09-11T16:09:52.710Z,23.94
2022-09-11T16:12:21.098Z,23.93
2022-09-11T16:14:50.321Z,23.92
2022-09-11T16:17:20.698Z,23.85
2022-09-11T16:19:51.599Z,23.79
2022-09-11T16:22:20.550Z,23.73
2022-09-11T16:24:48.985Z,23.67
2022-09-11T16:27:18.547Z,23.61
2022-09-11T16:32:39.350Z,23.38
2022-09-11T16:35:13.429Z,23.24
2022-09-11T16:37:42.667Z,23.13
2022-09-11T16:40:11.794Z,23.02
2022-09-11T16:42:41.032Z,22.89
2022-09-11T16:45:10.656Z,22.77
2022-09-11T16:47:39.585Z,22.65
2022-09-11T16:50:10.751Z,22.52
2022-09-11T16:52:39.848Z,22.34
2022-09-11T16:55:11.267Z,22.24
2022-09-11T16:57:40.182Z,22.12
2022-09-11T17:00:10.896Z,21.98
2022-09-11T17:02:39.808Z,21.90
2022-09-11T17:05:11.334Z,21.81
2022-09-11T17:07:42.411Z,21.77
2022-09-11T17:10:11.970Z,21.57
2022-09-11T17:12:40.501Z,21.38
2022-09-11T17:15:10.539Z,21.33
2022-09-11T17:17:39.082Z,21.11
2022-09-11T17:20:11.919Z,21.04
2022-09-11T17:22:40.860Z,20.97
2022-09-11T17:25:11.506Z,20.95
2022-09-11T17:27:40.908Z,20.85
2022-09-11T17:30:12.713Z,20.72
2022-09-11T17:32:41.608Z,20.68
2022-09-11T17:35:12.832Z,20.57
2022-09-11T17:37:42.735Z,20.45
2022-09-11T17:40:12.661Z,20.29
2022-09-11T17:42:41.899Z,20.24
2022-09-11T17:45:15.670Z,20.15
2022-09-11T17:47:44.757Z,20.00
2022-09-11T17:50:15.475Z,19.88
2022-09-11T17:52:44.840Z,19.88
2022-09-11T17:55:13.335Z,19.85
2022-09-11T17:57:44.426Z,19.69
2022-09-11T18:00:14.843Z,19.57
2022-09-11T18:02:44.844Z,19.61
2022-09-11T18:05:14.722Z,19.49
2022-09-11T18:07:43.629Z,19.34
2022-09-11T18:10:12.163Z,19.37
2022-09-11T18:12:40.683Z,19.34
2022-09-11T18:15:11.311Z,19.31
2022-09-11T18:17:39.801Z,19.25
2022-09-11T18:20:10.458Z,19.10
2022-09-11T18:22:40.617Z,18.99
2022-09-11T18:25:10.640Z,18.90
2022-09-11T18:27:40.239Z,18.87
2022-09-11T18:30:10.731Z,18.78
2022-09-11T18:32:42.103Z,18.69
2022-09-11T18:35:11.787Z,18.57
2022-09-11T18:37:41.856Z,18.57
2022-09-11T18:40:11.912Z,18.53
2022-09-11T18:42:40.911Z,18.52
2022-09-11T18:45:13.043Z,18.48
2022-09-11T18:47:43.177Z,18.45
2022-09-11T18:50:14.111Z,18.38
2022-09-11T18:52:44.739Z,18.28
2022-09-11T18:55:13.341Z,18.12
2022-09-11T18:57:44.849Z,18.09
2022-09-11T19:00:18.074Z,17.97
2022-09-11T19:02:47.380Z,17.89
2022-09-11T19:05:17.117Z,17.87
2022-09-11T19:07:49.911Z,17.85
2022-09-11T19:10:19.430Z,17.89
2022-09-11T19:12:49.608Z,17.77
2022-09-11T19:15:18.366Z,17.62
2022-09-11T19:17:47.999Z,17.61
2022-09-11T19:20:19.858Z,17.66
2022-09-11T19:22:49.844Z,17.62
2022-09-11T19:25:18.445Z,17.48
2022-09-11T19:27:47.102Z,17.35
2022-09-11T19:30:16.992Z,17.36
2022-09-11T19:32:45.877Z,17.38
2022-09-11T19:35:14.583Z,17.42
2022-09-11T19:37:43.110Z,17.38
2022-09-11T19:40:13.394Z,17.29
2022-09-11T19:42:41.920Z,17.27
2022-09-11T19:45:11.107Z,17.20
2022-09-11T19:47:39.788Z,17.14
2022-09-11T19:50:09.858Z,17.11
2022-09-11T19:52:38.526Z,17.07
2022-09-11T19:55:07.961Z,17.09
2022-09-11T19:57:37.744Z,17.11
2022-09-11T20:00:08.588Z,17.09
2022-09-11T20:02:37.200Z,17.06
2022-09-11T20:05:06.207Z,17.00
2022-09-11T20:07:34.747Z,16.84
2022-09-11T20:10:04.603Z,16.85
2022-09-11T20:12:37.074Z,16.87
2022-09-11T20:15:08.813Z,16.85
2022-09-11T20:17:37.390Z,16.83
2022-09-11T20:20:07.076Z,16.79
2022-09-11T20:22:35.650Z,16.71
2022-09-11T20:25:05.513Z,16.64
2022-09-11T20:27:35.535Z,16.63
2022-09-11T20:30:04.637Z,16.53
2022-09-11T20:32:39.035Z,16.46
2022-09-11T20:35:08.897Z,16.37
2022-09-11T20:37:38.755Z,16.30
2022-09-11T20:40:10.197Z,16.26
2022-09-11T20:42:39.887Z,16.17
2022-09-11T20:45:09.697Z,16.21
2022-09-11T20:47:40.332Z,16.22
2022-09-11T20:50:11.711Z,16.22
2022-09-11T20:52:41.121Z,16.19
2022-09-11T20:55:10.200Z,16.18
2022-09-11T20:57:38.952Z,16.12
2022-09-11T21:00:10.314Z,16.08
2022-09-11T21:02:40.273Z,16.06
2022-09-11T21:05:10.112Z,16.07
2022-09-11T21:07:38.575Z,16.08
2022-09-11T21:10:08.586Z,15.98
2022-09-11T21:12:37.640Z,15.88
2022-09-11T21:15:08.290Z,15.81
2022-09-11T21:17:37.135Z,15.72
2022-09-11T21:20:08.669Z,15.70
2022-09-11T21:22:37.713Z,15.73
2022-09-11T21:25:09.197Z,15.73
2022-09-11T21:27:38.452Z,15.77
2022-09-11T21:30:08.496Z,15.74
2022-09-11T21:32:37.147Z,15.69
2022-09-11T21:35:08.999Z,15.69
2022-09-11T21:37:37.948Z,15.63
2022-09-11T21:40:08.314Z,15.57
2022-09-11T21:42:36.983Z,15.55
2022-09-11T21:45:06.469Z,15.46
2022-09-11T21:47:38.801Z,15.46
2022-09-11T21:50:10.809Z,15.45
2022-09-11T21:52:39.377Z,15.42
2022-09-11T21:55:13.593Z,15.28
2022-09-11T21:57:42.275Z,15.31
2022-09-11T22:00:14.165Z,15.32
2022-09-11T22:02:42.848Z,15.34
2022-09-11T22:05:12.995Z,15.28
2022-09-11T22:07:41.899Z,15.20
2022-09-11T22:10:13.946Z,15.14
2022-09-11T22:12:43.635Z,15.13
2022-09-11T22:15:12.899Z,15.09
2022-09-11T22:17:42.170Z,15.04
2022-09-11T22:20:12.572Z,15.09
2022-09-11T22:22:42.593Z,15.09
2022-09-11T22:25:12.120Z,15.06
2022-09-11T22:27:40.509Z,15.01
2022-09-11T22:30:12.426Z,14.94
2022-09-11T22:32:40.909Z,14.93
2022-09-11T22:35:11.339Z,14.94
2022-09-11T22:37:41.151Z,14.92
2022-09-11T22:40:11.365Z,14.91
2022-09-11T22:42:40.175Z,14.88
2022-09-11T22:45:10.335Z,14.80
2022-09-11T22:47:40.084Z,14.80
2022-09-11T22:50:10.144Z,14.82
2022-09-11T22:52:40.044Z,14.78
2022-09-11T22:55:10.764Z,14.64
2022-09-11T22:57:40.577Z,14.67
2022-09-11T23:00:14.426Z,14.71
2022-09-11T23:02:42.998Z,14.72
2022-09-11T23:05:28.992Z,14.69
2022-09-11T23:07:59.019Z,14.65
2022-09-11T23:10:28.718Z,14.64
2022-09-11T23:12:58.349Z,14.57
2022-09-11T23:15:26.882Z,14.51
2022-09-11T23:17:56.503Z,14.47
2022-09-11T23:20:24.925Z,14.45
2022-09-11T23:22:53.494Z,14.38
2022-09-11T23:25:25.179Z,14.29
2022-09-11T23:27:54.513Z,14.29
2022-09-11T23:30:22.982Z,14.27
2022-09-11T23:32:54.126Z,14.27
2022-09-11T23:35:22.808Z,14.22
2022-09-11T23:37:51.880Z,14.19
2022-09-11T23:40:20.335Z,14.25
2022-09-11T23:42:50.213Z,14.27
2022-09-11T23:45:19.530Z,14.27
2022-09-11T23:47:49.049Z,14.24
2022-09-11T23:50:17.756Z,14.21
2022-09-11T23:52:46.636Z,14.17
2022-09-11T23:55:15.074Z,14.14
2022-09-11T23:57:43.758Z,14.14
